Swift, Minnesota
Current Conditions -  °F | °C
As of 8:14 AM on Sunday 25 Jan 2015 (Local Time) from KRRT Reporting Station
Overcast Overcast  
Wind Chill: -3°   Ceiling: 5000
Heat Index:   Visibility: 10mi
Dew Point:   Wind: 7mph
Humidity: 73%   Direction: 100°E
Pressure: 30.01"   Gusts: NA
Location:  48.85°N, 95.22°W
Report Text: KRRT 251414Z AUTO 10006KT 10SM OVC050 M13/M17 A3001 RMK AO2
Loading
Personal Weather Stations






























Interactive Weather Map New forecast layout! Learn more

10-Day Weather Forecast

Advertisements
Track Severe Weather on mobile